sensor_id;sensor_type;location;lat;lon;timestamp;P1;durP1;ratioP1;P2;durP2;ratioP2
34902;SDS011;21114;44.840;0.214;2022-12-07T00:02:16;9.95;;;7.50;;
34902;SDS011;21114;44.840;0.214;2022-12-07T00:04:42;12.93;;;9.60;;
34902;SDS011;21114;44.840;0.214;2022-12-07T00:07:08;10.93;;;9.80;;
34902;SDS011;21114;44.840;0.214;2022-12-07T00:09:34;13.30;;;9.43;;
34902;SDS011;21114;44.840;0.214;2022-12-07T00:12:00;10.90;;;8.50;;
34902;SDS011;21114;44.840;0.214;2022-12-07T00:14:26;12.45;;;9.57;;
34902;SDS011;21114;44.840;0.214;2022-12-07T00:16:52;10.02;;;8.50;;
34902;SDS011;21114;44.840;0.214;2022-12-07T00:19:18;11.43;;;9.52;;
34902;SDS011;21114;44.840;0.214;2022-12-07T00:21:45;11.95;;;9.63;;
34902;SDS011;21114;44.840;0.214;2022-12-07T00:24:11;12.48;;;9.77;;
34902;SDS011;21114;44.840;0.214;2022-12-07T00:26:38;12.55;;;8.95;;
34902;SDS011;21114;44.840;0.214;2022-12-07T00:29:53;11.45;;;8.35;;
34902;SDS011;21114;44.840;0.214;2022-12-07T00:32:19;14.93;;;11.20;;
34902;SDS011;21114;44.840;0.214;2022-12-07T00:34:45;10.65;;;9.30;;
34902;SDS011;21114;44.840;0.214;2022-12-07T00:37:11;13.27;;;9.98;;
34902;SDS011;21114;44.840;0.214;2022-12-07T00:39:38;13.43;;;9.93;;
34902;SDS011;21114;44.840;0.214;2022-12-07T00:42:04;13.05;;;9.45;;
34902;SDS011;21114;44.840;0.214;2022-12-07T00:44:30;13.68;;;10.27;;
34902;SDS011;21114;44.840;0.214;2022-12-07T00:46:56;12.90;;;10.40;;
34902;SDS011;21114;44.840;0.214;2022-12-07T00:49:22;12.88;;;11.38;;
34902;SDS011;21114;44.840;0.214;2022-12-07T00:51:48;12.98;;;10.13;;
34902;SDS011;21114;44.840;0.214;2022-12-07T00:55:03;11.55;;;9.18;;
34902;SDS011;21114;44.840;0.214;2022-12-07T00:57:30;16.27;;;10.52;;
34902;SDS011;21114;44.840;0.214;2022-12-07T01:00:45;11.52;;;8.82;;
34902;SDS011;21114;44.840;0.214;2022-12-07T01:03:11;15.20;;;10.95;;
34902;SDS011;21114;44.840;0.214;2022-12-07T01:06:26;11.38;;;9.63;;
34902;SDS011;21114;44.840;0.214;2022-12-07T01:08:53;14.20;;;11.00;;
34902;SDS011;21114;44.840;0.214;2022-12-07T01:11:20;11.15;;;9.98;;
34902;SDS011;21114;44.840;0.214;2022-12-07T01:14:34;13.35;;;10.68;;
34902;SDS011;21114;44.840;0.214;2022-12-07T01:17:00;15.40;;;10.93;;
34902;SDS011;21114;44.840;0.214;2022-12-07T01:19:27;12.88;;;10.35;;
34902;SDS011;21114;44.840;0.214;2022-12-07T01:21:53;12.43;;;9.88;;
34902;SDS011;21114;44.840;0.214;2022-12-07T01:24:19;11.77;;;10.18;;
34902;SDS011;21114;44.840;0.214;2022-12-07T01:26:45;14.82;;;9.75;;
34902;SDS011;21114;44.840;0.214;2022-12-07T01:29:11;12.73;;;10.43;;
34902;SDS011;21114;44.840;0.214;2022-12-07T01:31:37;14.23;;;10.52;;
34902;SDS011;21114;44.840;0.214;2022-12-07T01:34:03;12.18;;;10.88;;
34902;SDS011;21114;44.840;0.214;2022-12-07T01:36:30;11.95;;;9.82;;
34902;SDS011;21114;44.840;0.214;2022-12-07T01:39:48;13.00;;;10.75;;
34902;SDS011;21114;44.840;0.214;2022-12-07T01:43:04;14.05;;;10.60;;
34902;SDS011;21114;44.840;0.214;2022-12-07T01:46:18;13.13;;;11.10;;
34902;SDS011;21114;44.840;0.214;2022-12-07T01:48:45;13.85;;;9.32;;
34902;SDS011;21114;44.840;0.214;2022-12-07T01:51:11;12.90;;;9.65;;
34902;SDS011;21114;44.840;0.214;2022-12-07T01:54:26;13.50;;;10.32;;
34902;SDS011;21114;44.840;0.214;2022-12-07T01:56:53;11.13;;;9.52;;
34902;SDS011;21114;44.840;0.214;2022-12-07T02:00:09;12.85;;;10.43;;
34902;SDS011;21114;44.840;0.214;2022-12-07T02:03:27;14.07;;;11.27;;
34902;SDS011;21114;44.840;0.214;2022-12-07T02:06:17;12.27;;;10.25;;
34902;SDS011;21114;44.840;0.214;2022-12-07T02:09:34;12.18;;;10.15;;
34902;SDS011;21114;44.840;0.214;2022-12-07T02:12:00;14.05;;;10.68;;
34902;SDS011;21114;44.840;0.214;2022-12-07T02:15:15;12.10;;;10.23;;
34902;SDS011;21114;44.840;0.214;2022-12-07T02:20:23;12.35;;;9.25;;
34902;SDS011;21114;44.840;0.214;2022-12-07T02:29:13;11.48;;;9.10;;
34902;SDS011;21114;44.840;0.214;2022-12-07T02:40:15;13.27;;;10.73;;
34902;SDS011;21114;44.840;0.214;2022-12-07T02:43:34;13.70;;;10.77;;
34902;SDS011;21114;44.840;0.214;2022-12-07T02:46:52;13.63;;;10.05;;
34902;SDS011;21114;44.840;0.214;2022-12-07T02:50:11;11.75;;;9.30;;
34902;SDS011;21114;44.840;0.214;2022-12-07T02:52:37;9.88;;;8.23;;
34902;SDS011;21114;44.840;0.214;2022-12-07T02:55:04;12.90;;;10.38;;
34902;SDS011;21114;44.840;0.214;2022-12-07T02:58:22;12.32;;;10.55;;
34902;SDS011;21114;44.840;0.214;2022-12-07T03:04:22;11.60;;;9.25;;
34902;SDS011;21114;44.840;0.214;2022-12-07T03:07:48;15.32;;;10.75;;
34902;SDS011;21114;44.840;0.214;2022-12-07T03:11:13;12.20;;;9.98;;
34902;SDS011;21114;44.840;0.214;2022-12-07T03:14:30;13.25;;;10.65;;
34902;SDS011;21114;44.840;0.214;2022-12-07T03:17:46;12.93;;;10.63;;
34902;SDS011;21114;44.840;0.214;2022-12-07T03:21:02;13.40;;;9.80;;
34902;SDS011;21114;44.840;0.214;2022-12-07T03:24:20;12.32;;;9.57;;
34902;SDS011;21114;44.840;0.214;2022-12-07T03:30:16;10.57;;;8.73;;
34902;SDS011;21114;44.840;0.214;2022-12-07T03:33:22;11.38;;;8.45;;
34902;SDS011;21114;44.840;0.214;2022-12-07T03:36:40;11.77;;;9.35;;
34902;SDS011;21114;44.840;0.214;2022-12-07T03:42:39;12.23;;;9.63;;
34902;SDS011;21114;44.840;0.214;2022-12-07T03:45:06;11.73;;;9.48;;
34902;SDS011;21114;44.840;0.214;2022-12-07T03:53:54;11.52;;;8.73;;
34902;SDS011;21114;44.840;0.214;2022-12-07T03:57:11;11.23;;;8.57;;
34902;SDS011;21114;44.840;0.214;2022-12-07T04:00:21;12.75;;;9.45;;
34902;SDS011;21114;44.840;0.214;2022-12-07T04:02:47;11.35;;;8.63;;
34902;SDS011;21114;44.840;0.214;2022-12-07T04:05:13;11.73;;;9.85;;
34902;SDS011;21114;44.840;0.214;2022-12-07T04:07:39;11.07;;;8.85;;
34902;SDS011;21114;44.840;0.214;2022-12-07T04:10:54;10.25;;;8.57;;
34902;SDS011;21114;44.840;0.214;2022-12-07T04:13:20;10.32;;;7.75;;
34902;SDS011;21114;44.840;0.214;2022-12-07T04:15:46;13.15;;;9.18;;
34902;SDS011;21114;44.840;0.214;2022-12-07T04:18:12;13.48;;;9.18;;
34902;SDS011;21114;44.840;0.214;2022-12-07T04:20:38;11.52;;;8.68;;
34902;SDS011;21114;44.840;0.214;2022-12-07T04:23:05;12.18;;;8.98;;
34902;SDS011;21114;44.840;0.214;2022-12-07T04:25:31;11.98;;;9.48;;
34902;SDS011;21114;44.840;0.214;2022-12-07T04:27:57;11.63;;;8.68;;
34902;SDS011;21114;44.840;0.214;2022-12-07T04:30:23;11.07;;;9.15;;
34902;SDS011;21114;44.840;0.214;2022-12-07T04:32:49;10.85;;;8.13;;
34902;SDS011;21114;44.840;0.214;2022-12-07T04:35:15;10.35;;;8.40;;
34902;SDS011;21114;44.840;0.214;2022-12-07T04:37:41;10.65;;;8.07;;
34902;SDS011;21114;44.840;0.214;2022-12-07T04:40:08;15.55;;;8.77;;
34902;SDS011;21114;44.840;0.214;2022-12-07T04:43:22;11.98;;;9.30;;
34902;SDS011;21114;44.840;0.214;2022-12-07T04:45:48;11.93;;;9.38;;
34902;SDS011;21114;44.840;0.214;2022-12-07T04:48:16;10.93;;;8.75;;
34902;SDS011;21114;44.840;0.214;2022-12-07T04:50:42;10.50;;;8.75;;
34902;SDS011;21114;44.840;0.214;2022-12-07T04:53:08;12.15;;;9.25;;
34902;SDS011;21114;44.840;0.214;2022-12-07T04:55:34;10.50;;;8.45;;
34902;SDS011;21114;44.840;0.214;2022-12-07T04:58:00;10.60;;;8.68;;
34902;SDS011;21114;44.840;0.214;2022-12-07T05:00:26;11.32;;;9.07;;
34902;SDS011;21114;44.840;0.214;2022-12-07T05:02:52;11.30;;;8.52;;
34902;SDS011;21114;44.840;0.214;2022-12-07T05:05:18;9.50;;;7.47;;
34902;SDS011;21114;44.840;0.214;2022-12-07T05:07:44;11.50;;;8.68;;
34902;SDS011;21114;44.840;0.214;2022-12-07T05:10:10;10.23;;;8.45;;
34902;SDS011;21114;44.840;0.214;2022-12-07T05:12:36;13.77;;;8.77;;
34902;SDS011;21114;44.840;0.214;2022-12-07T05:15:03;10.95;;;7.68;;
34902;SDS011;21114;44.840;0.214;2022-12-07T05:18:18;10.45;;;7.93;;
34902;SDS011;21114;44.840;0.214;2022-12-07T05:20:44;12.65;;;8.30;;
34902;SDS011;21114;44.840;0.214;2022-12-07T05:23:59;11.82;;;8.95;;
34902;SDS011;21114;44.840;0.214;2022-12-07T05:26:25;10.82;;;8.35;;
34902;SDS011;21114;44.840;0.214;2022-12-07T05:28:52;12.07;;;8.80;;
34902;SDS011;21114;44.840;0.214;2022-12-07T05:32:07;10.38;;;7.80;;
34902;SDS011;21114;44.840;0.214;2022-12-07T05:34:33;10.20;;;8.18;;
34902;SDS011;21114;44.840;0.214;2022-12-07T05:36:59;12.40;;;9.23;;
34902;SDS011;21114;44.840;0.214;2022-12-07T05:39:25;10.80;;;8.48;;
34902;SDS011;21114;44.840;0.214;2022-12-07T05:41:51;10.55;;;9.00;;
34902;SDS011;21114;44.840;0.214;2022-12-07T05:44:45;11.05;;;8.57;;
34902;SDS011;21114;44.840;0.214;2022-12-07T05:48:00;13.73;;;9.75;;
34902;SDS011;21114;44.840;0.214;2022-12-07T05:50:26;12.38;;;9.77;;
34902;SDS011;21114;44.840;0.214;2022-12-07T05:52:53;12.18;;;9.05;;
34902;SDS011;21114;44.840;0.214;2022-12-07T05:55:19;12.90;;;9.82;;
34902;SDS011;21114;44.840;0.214;2022-12-07T05:57:45;10.88;;;8.55;;
34902;SDS011;21114;44.840;0.214;2022-12-07T06:00:39;13.18;;;10.05;;
34902;SDS011;21114;44.840;0.214;2022-12-07T06:03:06;12.43;;;9.88;;
34902;SDS011;21114;44.840;0.214;2022-12-07T06:05:32;11.93;;;9.27;;
34902;SDS011;21114;44.840;0.214;2022-12-07T06:07:58;14.25;;;9.32;;
34902;SDS011;21114;44.840;0.214;2022-12-07T06:10:24;11.15;;;9.50;;
34902;SDS011;21114;44.840;0.214;2022-12-07T06:12:50;13.15;;;9.30;;
34902;SDS011;21114;44.840;0.214;2022-12-07T06:15:16;12.10;;;8.93;;
34902;SDS011;21114;44.840;0.214;2022-12-07T06:17:42;12.02;;;8.15;;
34902;SDS011;21114;44.840;0.214;2022-12-07T06:20:08;9.65;;;7.47;;
34902;SDS011;21114;44.840;0.214;2022-12-07T06:22:34;11.75;;;9.50;;
34902;SDS011;21114;44.840;0.214;2022-12-07T06:25:00;12.10;;;8.40;;
34902;SDS011;21114;44.840;0.214;2022-12-07T06:27:27;9.82;;;8.25;;
34902;SDS011;21114;44.840;0.214;2022-12-07T06:29:53;50.05;;;30.38;;
34902;SDS011;21114;44.840;0.214;2022-12-07T06:32:19;12.95;;;11.02;;
34902;SDS011;21114;44.840;0.214;2022-12-07T06:34:45;11.48;;;9.90;;
34902;SDS011;21114;44.840;0.214;2022-12-07T06:37:12;9.77;;;8.10;;
34902;SDS011;21114;44.840;0.214;2022-12-07T06:39:38;11.90;;;8.25;;
34902;SDS011;21114;44.840;0.214;2022-12-07T06:42:04;12.75;;;9.10;;
34902;SDS011;21114;44.840;0.214;2022-12-07T06:44:30;9.57;;;7.25;;
34902;SDS011;21114;44.840;0.214;2022-12-07T06:46:57;8.55;;;7.25;;
34902;SDS011;21114;44.840;0.214;2022-12-07T06:49:23;10.25;;;8.35;;
34902;SDS011;21114;44.840;0.214;2022-12-07T06:51:49;14.88;;;11.10;;
34902;SDS011;21114;44.840;0.214;2022-12-07T06:54:16;12.75;;;8.52;;
34902;SDS011;21114;44.840;0.214;2022-12-07T06:56:42;11.50;;;9.18;;
34902;SDS011;21114;44.840;0.214;2022-12-07T06:59:08;10.70;;;8.52;;
34902;SDS011;21114;44.840;0.214;2022-12-07T07:01:35;11.50;;;8.80;;
34902;SDS011;21114;44.840;0.214;2022-12-07T07:04:01;9.63;;;7.55;;
34902;SDS011;21114;44.840;0.214;2022-12-07T07:06:27;9.35;;;7.50;;
34902;SDS011;21114;44.840;0.214;2022-12-07T07:08:53;9.93;;;7.53;;
34902;SDS011;21114;44.840;0.214;2022-12-07T07:11:19;13.32;;;8.65;;
34902;SDS011;21114;44.840;0.214;2022-12-07T07:13:46;11.13;;;8.23;;
34902;SDS011;21114;44.840;0.214;2022-12-07T07:16:12;11.52;;;9.55;;
34902;SDS011;21114;44.840;0.214;2022-12-07T07:19:27;14.10;;;11.00;;
34902;SDS011;21114;44.840;0.214;2022-12-07T07:21:53;10.65;;;8.45;;
34902;SDS011;21114;44.840;0.214;2022-12-07T07:24:19;12.68;;;9.95;;
34902;SDS011;21114;44.840;0.214;2022-12-07T07:26:45;10.10;;;8.30;;
34902;SDS011;21114;44.840;0.214;2022-12-07T07:29:11;9.93;;;7.82;;
34902;SDS011;21114;44.840;0.214;2022-12-07T07:31:37;10.82;;;7.63;;
34902;SDS011;21114;44.840;0.214;2022-12-07T07:34:04;10.10;;;7.78;;
34902;SDS011;21114;44.840;0.214;2022-12-07T07:36:30;12.88;;;9.77;;
34902;SDS011;21114;44.840;0.214;2022-12-07T07:38:56;11.45;;;9.52;;
34902;SDS011;21114;44.840;0.214;2022-12-07T07:41:22;16.73;;;10.63;;
34902;SDS011;21114;44.840;0.214;2022-12-07T07:43:48;20.95;;;14.75;;
34902;SDS011;21114;44.840;0.214;2022-12-07T07:46:14;17.35;;;11.68;;
34902;SDS011;21114;44.840;0.214;2022-12-07T07:48:40;17.40;;;12.45;;
34902;SDS011;21114;44.840;0.214;2022-12-07T07:51:07;12.57;;;10.13;;
34902;SDS011;21114;44.840;0.214;2022-12-07T07:54:22;14.90;;;11.52;;
34902;SDS011;21114;44.840;0.214;2022-12-07T07:56:48;14.80;;;11.48;;
34902;SDS011;21114;44.840;0.214;2022-12-07T07:59:14;14.40;;;9.68;;
34902;SDS011;21114;44.840;0.214;2022-12-07T08:01:40;16.63;;;11.10;;
34902;SDS011;21114;44.840;0.214;2022-12-07T08:04:07;14.82;;;10.02;;
34902;SDS011;21114;44.840;0.214;2022-12-07T08:07:18;13.25;;;9.43;;
34902;SDS011;21114;44.840;0.214;2022-12-07T08:09:45;14.05;;;9.95;;
34902;SDS011;21114;44.840;0.214;2022-12-07T08:12:11;15.30;;;10.95;;
34902;SDS011;21114;44.840;0.214;2022-12-07T08:14:37;11.13;;;9.07;;
34902;SDS011;21114;44.840;0.214;2022-12-07T08:17:03;11.75;;;8.38;;
34902;SDS011;21114;44.840;0.214;2022-12-07T08:19:29;11.90;;;8.20;;
34902;SDS011;21114;44.840;0.214;2022-12-07T08:21:55;13.63;;;8.73;;
34902;SDS011;21114;44.840;0.214;2022-12-07T08:24:21;12.57;;;9.32;;
34902;SDS011;21114;44.840;0.214;2022-12-07T08:26:48;13.13;;;10.20;;
34902;SDS011;21114;44.840;0.214;2022-12-07T08:29:15;16.88;;;10.15;;
34902;SDS011;21114;44.840;0.214;2022-12-07T08:31:41;13.02;;;9.80;;
34902;SDS011;21114;44.840;0.214;2022-12-07T08:34:09;14.30;;;10.50;;
34902;SDS011;21114;44.840;0.214;2022-12-07T08:37:24;17.02;;;11.80;;
34902;SDS011;21114;44.840;0.214;2022-12-07T08:39:50;13.35;;;11.00;;
34902;SDS011;21114;44.840;0.214;2022-12-07T08:42:16;14.15;;;10.38;;
34902;SDS011;21114;44.840;0.214;2022-12-07T08:44:42;12.25;;;9.50;;
34902;SDS011;21114;44.840;0.214;2022-12-07T08:47:08;14.45;;;8.93;;
34902;SDS011;21114;44.840;0.214;2022-12-07T08:50:24;12.52;;;9.48;;
34902;SDS011;21114;44.840;0.214;2022-12-07T08:53:39;10.80;;;8.38;;
34902;SDS011;21114;44.840;0.214;2022-12-07T08:56:54;14.00;;;9.68;;
34902;SDS011;21114;44.840;0.214;2022-12-07T09:00:09;12.30;;;9.05;;
34902;SDS011;21114;44.840;0.214;2022-12-07T09:03:24;14.20;;;9.15;;
34902;SDS011;21114;44.840;0.214;2022-12-07T09:05:50;10.70;;;8.02;;
34902;SDS011;21114;44.840;0.214;2022-12-07T09:08:16;10.52;;;7.93;;
34902;SDS011;21114;44.840;0.214;2022-12-07T09:10:42;11.10;;;7.68;;
34902;SDS011;21114;44.840;0.214;2022-12-07T09:13:08;10.60;;;8.32;;
34902;SDS011;21114;44.840;0.214;2022-12-07T09:15:34;11.40;;;8.35;;
34902;SDS011;21114;44.840;0.214;2022-12-07T09:18:00;8.13;;;6.47;;
34902;SDS011;21114;44.840;0.214;2022-12-07T09:20:26;10.57;;;7.70;;
34902;SDS011;21114;44.840;0.214;2022-12-07T09:22:52;10.43;;;7.10;;
34902;SDS011;21114;44.840;0.214;2022-12-07T09:25:18;10.30;;;7.55;;
34902;SDS011;21114;44.840;0.214;2022-12-07T09:27:45;12.77;;;9.32;;
34902;SDS011;21114;44.840;0.214;2022-12-07T09:30:11;9.20;;;7.60;;
34902;SDS011;21114;44.840;0.214;2022-12-07T09:32:37;9.77;;;8.00;;
34902;SDS011;21114;44.840;0.214;2022-12-07T09:35:03;11.27;;;7.68;;
34902;SDS011;21114;44.840;0.214;2022-12-07T09:37:29;10.10;;;8.10;;
34902;SDS011;21114;44.840;0.214;2022-12-07T09:40:00;11.50;;;8.82;;
34902;SDS011;21114;44.840;0.214;2022-12-07T09:42:30;10.32;;;7.18;;
34902;SDS011;21114;44.840;0.214;2022-12-07T09:45:24;13.00;;;9.50;;
34902;SDS011;21114;44.840;0.214;2022-12-07T09:48:39;9.95;;;8.35;;
34902;SDS011;21114;44.840;0.214;2022-12-07T09:51:14;10.43;;;8.20;;
34902;SDS011;21114;44.840;0.214;2022-12-07T09:54:29;11.30;;;9.00;;
34902;SDS011;21114;44.840;0.214;2022-12-07T09:56:56;10.23;;;8.32;;
34902;SDS011;21114;44.840;0.214;2022-12-07T09:59:22;10.65;;;7.68;;
34902;SDS011;21114;44.840;0.214;2022-12-07T10:01:49;12.45;;;8.18;;
34902;SDS011;21114;44.840;0.214;2022-12-07T10:05:06;12.20;;;8.07;;
34902;SDS011;21114;44.840;0.214;2022-12-07T10:08:21;9.27;;;7.03;;
34902;SDS011;21114;44.840;0.214;2022-12-07T10:10:50;12.02;;;6.93;;
34902;SDS011;21114;44.840;0.214;2022-12-07T10:14:12;9.77;;;7.50;;
34902;SDS011;21114;44.840;0.214;2022-12-07T10:20:22;7.22;;;5.40;;
34902;SDS011;21114;44.840;0.214;2022-12-07T10:23:14;8.00;;;6.43;;
34902;SDS011;21114;44.840;0.214;2022-12-07T10:26:20;9.25;;;6.38;;
34902;SDS011;21114;44.840;0.214;2022-12-07T10:29:36;8.10;;;6.35;;
34902;SDS011;21114;44.840;0.214;2022-12-07T10:32:51;7.07;;;5.80;;
34902;SDS011;21114;44.840;0.214;2022-12-07T10:37:58;7.25;;;6.40;;
34902;SDS011;21114;44.840;0.214;2022-12-07T10:41:17;8.07;;;6.75;;
34902;SDS011;21114;44.840;0.214;2022-12-07T10:43:52;9.00;;;6.22;;
34902;SDS011;21114;44.840;0.214;2022-12-07T10:57:51;9.02;;;7.07;;
34902;SDS011;21114;44.840;0.214;2022-12-07T11:06:37;7.38;;;5.90;;
34902;SDS011;21114;44.840;0.214;2022-12-07T11:09:57;6.80;;;5.97;;
34902;SDS011;21114;44.840;0.214;2022-12-07T11:27:22;7.18;;;5.57;;
34902;SDS011;21114;44.840;0.214;2022-12-07T11:30:40;6.28;;;4.68;;
34902;SDS011;21114;44.840;0.214;2022-12-07T11:36:43;6.55;;;5.28;;
34902;SDS011;21114;44.840;0.214;2022-12-07T11:42:46;6.80;;;6.10;;
34902;SDS011;21114;44.840;0.214;2022-12-07T11:46:05;6.78;;;5.97;;
34902;SDS011;21114;44.840;0.214;2022-12-07T11:52:22;7.68;;;4.85;;
34902;SDS011;21114;44.840;0.214;2022-12-07T11:55:43;7.07;;;5.63;;
34902;SDS011;21114;44.840;0.214;2022-12-07T12:04:40;6.10;;;5.07;;
34902;SDS011;21114;44.840;0.214;2022-12-07T12:08:09;6.10;;;5.53;;
34902;SDS011;21114;44.840;0.214;2022-12-07T12:22:14;6.35;;;5.05;;
34902;SDS011;21114;44.840;0.214;2022-12-07T12:25:30;8.88;;;6.13;;
34902;SDS011;21114;44.840;0.214;2022-12-07T12:28:22;7.97;;;5.43;;
34902;SDS011;21114;44.840;0.214;2022-12-07T12:31:38;8.05;;;5.80;;
34902;SDS011;21114;44.840;0.214;2022-12-07T12:40:24;7.00;;;5.47;;
34902;SDS011;21114;44.840;0.214;2022-12-07T12:54:30;7.28;;;6.00;;
34902;SDS011;21114;44.840;0.214;2022-12-07T12:57:47;7.72;;;5.70;;
34902;SDS011;21114;44.840;0.214;2022-12-07T13:04:17;7.82;;;6.65;;
34902;SDS011;21114;44.840;0.214;2022-12-07T13:15:52;6.55;;;5.90;;
34902;SDS011;21114;44.840;0.214;2022-12-07T13:19:52;7.50;;;6.07;;
34902;SDS011;21114;44.840;0.214;2022-12-07T13:22:42;7.53;;;5.85;;
34902;SDS011;21114;44.840;0.214;2022-12-07T13:28:36;8.68;;;6.63;;
34902;SDS011;21114;44.840;0.214;2022-12-07T13:31:52;10.65;;;6.47;;
34902;SDS011;21114;44.840;0.214;2022-12-07T13:38:02;10.00;;;6.93;;
34902;SDS011;21114;44.840;0.214;2022-12-07T13:41:18;6.93;;;5.80;;
34902;SDS011;21114;44.840;0.214;2022-12-07T13:44:34;8.65;;;6.10;;
34902;SDS011;21114;44.840;0.214;2022-12-07T13:47:27;7.13;;;5.70;;
34902;SDS011;21114;44.840;0.214;2022-12-07T13:50:52;6.53;;;5.40;;
34902;SDS011;21114;44.840;0.214;2022-12-07T13:54:09;6.78;;;5.47;;
34902;SDS011;21114;44.840;0.214;2022-12-07T13:57:25;5.63;;;4.35;;
34902;SDS011;21114;44.840;0.214;2022-12-07T14:00:40;5.90;;;5.30;;
34902;SDS011;21114;44.840;0.214;2022-12-07T14:03:55;10.52;;;5.05;;
34902;SDS011;21114;44.840;0.214;2022-12-07T14:06:25;7.20;;;4.85;;
34902;SDS011;21114;44.840;0.214;2022-12-07T14:09:39;7.32;;;6.05;;
34902;SDS011;21114;44.840;0.214;2022-12-07T14:12:05;4.65;;;4.20;;
34902;SDS011;21114;44.840;0.214;2022-12-07T14:14:32;6.40;;;5.28;;
34902;SDS011;21114;44.840;0.214;2022-12-07T14:17:00;5.30;;;4.28;;
34902;SDS011;21114;44.840;0.214;2022-12-07T14:28:45;5.47;;;4.28;;
34902;SDS011;21114;44.840;0.214;2022-12-07T14:32:12;6.63;;;5.63;;
34902;SDS011;21114;44.840;0.214;2022-12-07T14:35:28;6.45;;;4.45;;
34902;SDS011;21114;44.840;0.214;2022-12-07T14:38:43;6.57;;;4.25;;
34902;SDS011;21114;44.840;0.214;2022-12-07T14:41:12;6.95;;;5.95;;
34902;SDS011;21114;44.840;0.214;2022-12-07T14:44:27;5.85;;;5.25;;
34902;SDS011;21114;44.840;0.214;2022-12-07T14:46:53;5.43;;;4.50;;
34902;SDS011;21114;44.840;0.214;2022-12-07T14:49:20;7.38;;;5.65;;
34902;SDS011;21114;44.840;0.214;2022-12-07T14:51:46;10.45;;;6.03;;
34902;SDS011;21114;44.840;0.214;2022-12-07T14:55:01;3.92;;;3.38;;
34902;SDS011;21114;44.840;0.214;2022-12-07T14:57:27;5.32;;;4.00;;
34902;SDS011;21114;44.840;0.214;2022-12-07T14:59:53;5.90;;;3.78;;
34902;SDS011;21114;44.840;0.214;2022-12-07T15:02:19;4.13;;;3.33;;
34902;SDS011;21114;44.840;0.214;2022-12-07T15:04:45;5.28;;;3.95;;
34902;SDS011;21114;44.840;0.214;2022-12-07T15:07:15;4.40;;;3.08;;
34902;SDS011;21114;44.840;0.214;2022-12-07T15:10:26;4.65;;;3.58;;
34902;SDS011;21114;44.840;0.214;2022-12-07T15:13:41;4.45;;;3.33;;
34902;SDS011;21114;44.840;0.214;2022-12-07T15:16:35;3.28;;;2.80;;
34902;SDS011;21114;44.840;0.214;2022-12-07T15:19:50;6.35;;;4.18;;
34902;SDS011;21114;44.840;0.214;2022-12-07T15:22:16;6.80;;;4.78;;
34902;SDS011;21114;44.840;0.214;2022-12-07T15:24:42;6.38;;;4.45;;
34902;SDS011;21114;44.840;0.214;2022-12-07T15:27:08;4.70;;;3.28;;
34902;SDS011;21114;44.840;0.214;2022-12-07T15:29:34;15.05;;;4.80;;
34902;SDS011;21114;44.840;0.214;2022-12-07T15:32:00;4.35;;;3.38;;
34902;SDS011;21114;44.840;0.214;2022-12-07T15:34:27;4.75;;;3.67;;
34902;SDS011;21114;44.840;0.214;2022-12-07T15:36:53;5.35;;;4.10;;
34902;SDS011;21114;44.840;0.214;2022-12-07T15:39:20;5.63;;;5.13;;
34902;SDS011;21114;44.840;0.214;2022-12-07T15:41:46;3.78;;;3.35;;
34902;SDS011;21114;44.840;0.214;2022-12-07T15:44:13;4.95;;;3.28;;
34902;SDS011;21114;44.840;0.214;2022-12-07T15:47:06;5.00;;;4.32;;
34902;SDS011;21114;44.840;0.214;2022-12-07T15:49:32;10.25;;;5.60;;
34902;SDS011;21114;44.840;0.214;2022-12-07T15:51:59;4.05;;;3.35;;
34902;SDS011;21114;44.840;0.214;2022-12-07T15:54:26;6.63;;;4.80;;
34902;SDS011;21114;44.840;0.214;2022-12-07T15:57:40;4.55;;;3.42;;
34902;SDS011;21114;44.840;0.214;2022-12-07T16:00:07;4.28;;;3.83;;
34902;SDS011;21114;44.840;0.214;2022-12-07T16:03:22;4.93;;;4.20;;
34902;SDS011;21114;44.840;0.214;2022-12-07T16:05:48;4.85;;;4.35;;
34902;SDS011;21114;44.840;0.214;2022-12-07T16:09:03;6.10;;;4.35;;
34902;SDS011;21114;44.840;0.214;2022-12-07T16:11:29;4.72;;;3.40;;
34902;SDS011;21114;44.840;0.214;2022-12-07T16:13:55;4.50;;;4.10;;
34902;SDS011;21114;44.840;0.214;2022-12-07T16:16:21;7.55;;;5.10;;
34902;SDS011;21114;44.840;0.214;2022-12-07T16:18:48;6.63;;;4.18;;
34902;SDS011;21114;44.840;0.214;2022-12-07T16:22:03;6.25;;;4.50;;
34902;SDS011;21114;44.840;0.214;2022-12-07T16:25:18;7.40;;;6.07;;
34902;SDS011;21114;44.840;0.214;2022-12-07T16:27:44;5.70;;;4.40;;
34902;SDS011;21114;44.840;0.214;2022-12-07T16:30:11;9.93;;;6.90;;
34902;SDS011;21114;44.840;0.214;2022-12-07T16:33:26;11.30;;;7.53;;
34902;SDS011;21114;44.840;0.214;2022-12-07T16:35:52;10.07;;;6.97;;
34902;SDS011;21114;44.840;0.214;2022-12-07T16:38:18;12.52;;;8.00;;
34902;SDS011;21114;44.840;0.214;2022-12-07T16:40:44;12.30;;;9.13;;
34902;SDS011;21114;44.840;0.214;2022-12-07T16:44:02;13.63;;;10.02;;
34902;SDS011;21114;44.840;0.214;2022-12-07T16:47:17;11.77;;;9.43;;
34902;SDS011;21114;44.840;0.214;2022-12-07T16:49:43;12.02;;;10.70;;
34902;SDS011;21114;44.840;0.214;2022-12-07T16:52:09;13.73;;;10.45;;
34902;SDS011;21114;44.840;0.214;2022-12-07T16:54:35;13.98;;;9.98;;
34902;SDS011;21114;44.840;0.214;2022-12-07T16:57:02;13.25;;;11.35;;
34902;SDS011;21114;44.840;0.214;2022-12-07T16:59:28;10.00;;;8.70;;
34902;SDS011;21114;44.840;0.214;2022-12-07T17:01:54;10.38;;;7.45;;
34902;SDS011;21114;44.840;0.214;2022-12-07T17:04:20;10.10;;;7.18;;
34902;SDS011;21114;44.840;0.214;2022-12-07T17:06:46;11.30;;;7.03;;
34902;SDS011;21114;44.840;0.214;2022-12-07T17:09:12;9.00;;;7.20;;
34902;SDS011;21114;44.840;0.214;2022-12-07T17:11:38;10.65;;;6.25;;
34902;SDS011;21114;44.840;0.214;2022-12-07T17:14:04;11.98;;;8.05;;
34902;SDS011;21114;44.840;0.214;2022-12-07T17:16:59;11.60;;;8.00;;
34902;SDS011;21114;44.840;0.214;2022-12-07T17:19:25;10.10;;;8.23;;
34902;SDS011;21114;44.840;0.214;2022-12-07T17:21:51;12.55;;;9.80;;
34902;SDS011;21114;44.840;0.214;2022-12-07T17:24:17;15.50;;;9.95;;
34902;SDS011;21114;44.840;0.214;2022-12-07T17:26:44;11.80;;;9.73;;
34902;SDS011;21114;44.840;0.214;2022-12-07T17:29:59;11.45;;;9.02;;
34902;SDS011;21114;44.840;0.214;2022-12-07T17:32:25;13.25;;;9.30;;
34902;SDS011;21114;44.840;0.214;2022-12-07T17:34:52;16.88;;;11.73;;
34902;SDS011;21114;44.840;0.214;2022-12-07T17:37:18;58.72;;;34.20;;
34902;SDS011;21114;44.840;0.214;2022-12-07T17:39:44;74.40;;;49.65;;
34902;SDS011;21114;44.840;0.214;2022-12-07T17:42:10;86.15;;;52.65;;
34902;SDS011;21114;44.840;0.214;2022-12-07T17:45:05;65.78;;;42.13;;
34902;SDS011;21114;44.840;0.214;2022-12-07T17:48:20;76.53;;;58.30;;
34902;SDS011;21114;44.840;0.214;2022-12-07T17:50:46;51.65;;;39.28;;
34902;SDS011;21114;44.840;0.214;2022-12-07T17:53:41;43.25;;;31.90;;
34902;SDS011;21114;44.840;0.214;2022-12-07T17:56:07;33.63;;;23.65;;
34902;SDS011;21114;44.840;0.214;2022-12-07T17:58:34;39.75;;;29.27;;
34902;SDS011;21114;44.840;0.214;2022-12-07T18:01:00;39.08;;;25.52;;
34902;SDS011;21114;44.840;0.214;2022-12-07T18:03:26;35.90;;;25.60;;
34902;SDS011;21114;44.840;0.214;2022-12-07T18:05:52;35.50;;;22.20;;
34902;SDS011;21114;44.840;0.214;2022-12-07T18:08:18;35.85;;;24.60;;
34902;SDS011;21114;44.840;0.214;2022-12-07T18:10:44;32.13;;;23.27;;
34902;SDS011;21114;44.840;0.214;2022-12-07T18:13:10;30.98;;;20.67;;
34902;SDS011;21114;44.840;0.214;2022-12-07T18:16:05;29.95;;;20.48;;
34902;SDS011;21114;44.840;0.214;2022-12-07T18:19:19;27.13;;;19.08;;
34902;SDS011;21114;44.840;0.214;2022-12-07T18:21:46;26.60;;;22.30;;